sensor_id;sensor_type;location;lat;lon;timestamp;temperature;humidity
13960;DHT22;7052;51.050;3.716;2024-01-10T00:00:16;-3.00;62.70
13960;DHT22;7052;51.050;3.716;2024-01-10T00:02:43;-2.90;62.20
13960;DHT22;7052;51.050;3.716;2024-01-10T00:05:10;-3.00;62.10
13960;DHT22;7052;51.050;3.716;2024-01-10T00:07:38;-2.90;62.10
13960;DHT22;7052;51.050;3.716;2024-01-10T00:10:06;-2.90;62.00
13960;DHT22;7052;51.050;3.716;2024-01-10T00:12:34;-2.90;61.50
13960;DHT22;7052;51.050;3.716;2024-01-10T00:15:06;-2.90;62.30
13960;DHT22;7052;51.050;3.716;2024-01-10T00:17:32;-2.90;61.60
13960;DHT22;7052;51.050;3.716;2024-01-10T00:19:59;-2.90;61.40
13960;DHT22;7052;51.050;3.716;2024-01-10T00:22:26;-2.90;61.80
13960;DHT22;7052;51.050;3.716;2024-01-10T00:24:53;-2.90;62.00
13960;DHT22;7052;51.050;3.716;2024-01-10T00:27:21;-2.90;61.60
13960;DHT22;7052;51.050;3.716;2024-01-10T00:29:48;-2.90;61.70
13960;DHT22;7052;51.050;3.716;2024-01-10T00:32:18;-2.90;62.10
13960;DHT22;7052;51.050;3.716;2024-01-10T00:34:45;-3.00;61.90
13960;DHT22;7052;51.050;3.716;2024-01-10T00:37:14;-3.00;62.00
13960;DHT22;7052;51.050;3.716;2024-01-10T00:39:41;-3.00;62.00
13960;DHT22;7052;51.050;3.716;2024-01-10T00:42:08;-3.00;62.10
13960;DHT22;7052;51.050;3.716;2024-01-10T00:44:35;-3.00;62.40
13960;DHT22;7052;51.050;3.716;2024-01-10T00:47:02;-3.00;62.90
13960;DHT22;7052;51.050;3.716;2024-01-10T00:49:31;-3.10;62.70
13960;DHT22;7052;51.050;3.716;2024-01-10T00:51:58;-3.00;62.70
13960;DHT22;7052;51.050;3.716;2024-01-10T00:54:25;-3.00;62.40
13960;DHT22;7052;51.050;3.716;2024-01-10T00:56:53;-3.10;62.90
13960;DHT22;7052;51.050;3.716;2024-01-10T00:59:20;-3.10;63.70
13960;DHT22;7052;51.050;3.716;2024-01-10T01:01:47;-3.10;63.00
13960;DHT22;7052;51.050;3.716;2024-01-10T01:04:15;-3.10;63.30
13960;DHT22;7052;51.050;3.716;2024-01-10T01:06:44;-3.20;63.50
13960;DHT22;7052;51.050;3.716;2024-01-10T01:09:15;-3.20;64.00
13960;DHT22;7052;51.050;3.716;2024-01-10T01:11:41;-3.30;64.70
13960;DHT22;7052;51.050;3.716;2024-01-10T01:14:08;-3.30;65.10
13960;DHT22;7052;51.050;3.716;2024-01-10T01:16:35;-3.30;65.00
13960;DHT22;7052;51.050;3.716;2024-01-10T01:19:03;-3.30;64.90
13960;DHT22;7052;51.050;3.716;2024-01-10T01:21:31;-3.30;65.20
13960;DHT22;7052;51.050;3.716;2024-01-10T01:23:59;-3.30;65.60
13960;DHT22;7052;51.050;3.716;2024-01-10T01:26:26;-3.40;65.80
13960;DHT22;7052;51.050;3.716;2024-01-10T01:28:53;-3.40;66.20
13960;DHT22;7052;51.050;3.716;2024-01-10T01:31:20;-3.40;66.30
13960;DHT22;7052;51.050;3.716;2024-01-10T01:33:49;-3.40;66.50
13960;DHT22;7052;51.050;3.716;2024-01-10T01:36:20;-3.40;66.80
13960;DHT22;7052;51.050;3.716;2024-01-10T01:38:47;-3.40;66.90
13960;DHT22;7052;51.050;3.716;2024-01-10T01:41:16;-3.40;66.90
13960;DHT22;7052;51.050;3.716;2024-01-10T01:43:44;-3.50;66.80
13960;DHT22;7052;51.050;3.716;2024-01-10T01:46:13;-3.50;66.90
13960;DHT22;7052;51.050;3.716;2024-01-10T01:48:42;-3.50;67.10
13960;DHT22;7052;51.050;3.716;2024-01-10T01:51:11;-3.50;67.30
13960;DHT22;7052;51.050;3.716;2024-01-10T01:53:40;-3.50;67.30
13960;DHT22;7052;51.050;3.716;2024-01-10T01:56:08;-3.50;67.30
13960;DHT22;7052;51.050;3.716;2024-01-10T01:58:39;-3.50;67.10
13960;DHT22;7052;51.050;3.716;2024-01-10T02:01:07;-3.50;66.90
13960;DHT22;7052;51.050;3.716;2024-01-10T02:03:34;-3.50;66.90
13960;DHT22;7052;51.050;3.716;2024-01-10T02:06:01;-3.50;66.60
13960;DHT22;7052;51.050;3.716;2024-01-10T02:08:29;-3.50;66.60
13960;DHT22;7052;51.050;3.716;2024-01-10T02:10:56;-3.50;66.70
13960;DHT22;7052;51.050;3.716;2024-01-10T02:13:23;-3.50;66.70
13960;DHT22;7052;51.050;3.716;2024-01-10T02:15:52;-3.50;67.00
13960;DHT22;7052;51.050;3.716;2024-01-10T02:18:20;-3.60;66.90
13960;DHT22;7052;51.050;3.716;2024-01-10T02:20:47;-3.60;67.10
13960;DHT22;7052;51.050;3.716;2024-01-10T02:23:14;-3.60;67.10
13960;DHT22;7052;51.050;3.716;2024-01-10T02:25:42;-3.60;67.30
13960;DHT22;7052;51.050;3.716;2024-01-10T02:28:10;-3.60;67.50
13960;DHT22;7052;51.050;3.716;2024-01-10T02:30:37;-3.60;67.50
13960;DHT22;7052;51.050;3.716;2024-01-10T02:33:05;-3.60;67.70
13960;DHT22;7052;51.050;3.716;2024-01-10T02:35:31;-3.60;68.20
13960;DHT22;7052;51.050;3.716;2024-01-10T02:37:59;-3.60;67.40
13960;DHT22;7052;51.050;3.716;2024-01-10T02:40:27;-3.60;67.10
13960;DHT22;7052;51.050;3.716;2024-01-10T02:42:56;-3.60;67.50
13960;DHT22;7052;51.050;3.716;2024-01-10T02:45:24;-3.70;67.00
13960;DHT22;7052;51.050;3.716;2024-01-10T02:47:51;-3.70;67.20
13960;DHT22;7052;51.050;3.716;2024-01-10T02:50:18;-3.70;67.40
13960;DHT22;7052;51.050;3.716;2024-01-10T02:52:46;-3.70;67.40
13960;DHT22;7052;51.050;3.716;2024-01-10T02:55:13;-3.70;67.50
13960;DHT22;7052;51.050;3.716;2024-01-10T02:57:42;-3.70;67.60
13960;DHT22;7052;51.050;3.716;2024-01-10T03:00:12;-3.70;67.80
13960;DHT22;7052;51.050;3.716;2024-01-10T03:02:39;-3.70;67.70
13960;DHT22;7052;51.050;3.716;2024-01-10T03:05:06;-3.80;67.70
13960;DHT22;7052;51.050;3.716;2024-01-10T03:07:33;-3.80;68.00
13960;DHT22;7052;51.050;3.716;2024-01-10T03:10:00;-3.70;68.10
13960;DHT22;7052;51.050;3.716;2024-01-10T03:12:29;-3.80;68.30
13960;DHT22;7052;51.050;3.716;2024-01-10T03:14:58;-3.80;68.60
13960;DHT22;7052;51.050;3.716;2024-01-10T03:17:26;-3.80;68.80
13960;DHT22;7052;51.050;3.716;2024-01-10T03:19:54;-3.80;68.70
13960;DHT22;7052;51.050;3.716;2024-01-10T03:22:21;-3.80;69.00
13960;DHT22;7052;51.050;3.716;2024-01-10T03:24:48;-3.90;69.10
13960;DHT22;7052;51.050;3.716;2024-01-10T03:27:15;-3.80;68.60
13960;DHT22;7052;51.050;3.716;2024-01-10T03:29:42;-3.80;68.70
13960;DHT22;7052;51.050;3.716;2024-01-10T03:32:09;-3.90;68.70
13960;DHT22;7052;51.050;3.716;2024-01-10T03:34:37;-3.90;68.80
13960;DHT22;7052;51.050;3.716;2024-01-10T03:37:05;-3.90;68.90
13960;DHT22;7052;51.050;3.716;2024-01-10T03:39:32;-3.90;68.90
13960;DHT22;7052;51.050;3.716;2024-01-10T03:41:59;-3.90;69.10
13960;DHT22;7052;51.050;3.716;2024-01-10T03:44:26;-3.90;69.40
13960;DHT22;7052;51.050;3.716;2024-01-10T03:46:53;-3.90;68.40
13960;DHT22;7052;51.050;3.716;2024-01-10T03:49:23;-3.90;68.40
13960;DHT22;7052;51.050;3.716;2024-01-10T03:51:52;-3.90;68.30
13960;DHT22;7052;51.050;3.716;2024-01-10T03:54:19;-3.90;68.20
13960;DHT22;7052;51.050;3.716;2024-01-10T03:56:46;-3.90;68.10
13960;DHT22;7052;51.050;3.716;2024-01-10T03:59:13;-3.80;67.70
13960;DHT22;7052;51.050;3.716;2024-01-10T04:01:41;-3.80;67.50
13960;DHT22;7052;51.050;3.716;2024-01-10T04:04:09;-3.90;67.70
13960;DHT22;7052;51.050;3.716;2024-01-10T04:06:38;-3.90;67.90
13960;DHT22;7052;51.050;3.716;2024-01-10T04:09:09;-3.90;67.90
13960;DHT22;7052;51.050;3.716;2024-01-10T04:11:38;-3.90;68.10
13960;DHT22;7052;51.050;3.716;2024-01-10T04:14:05;-3.90;68.30
13960;DHT22;7052;51.050;3.716;2024-01-10T04:16:32;-3.90;68.30
13960;DHT22;7052;51.050;3.716;2024-01-10T04:19:00;-3.90;68.30
13960;DHT22;7052;51.050;3.716;2024-01-10T04:21:27;-3.90;68.10
13960;DHT22;7052;51.050;3.716;2024-01-10T04:23:54;-3.80;67.60
13960;DHT22;7052;51.050;3.716;2024-01-10T04:26:22;-3.90;67.30
13960;DHT22;7052;51.050;3.716;2024-01-10T04:28:49;-3.90;67.30
13960;DHT22;7052;51.050;3.716;2024-01-10T04:31:18;-3.90;67.30
13960;DHT22;7052;51.050;3.716;2024-01-10T04:33:45;-3.90;67.30
13960;DHT22;7052;51.050;3.716;2024-01-10T04:36:12;-3.90;67.70
13960;DHT22;7052;51.050;3.716;2024-01-10T04:38:38;-3.90;67.30
13960;DHT22;7052;51.050;3.716;2024-01-10T04:41:06;-3.90;67.40
13960;DHT22;7052;51.050;3.716;2024-01-10T04:43:34;-3.90;67.70
13960;DHT22;7052;51.050;3.716;2024-01-10T04:46:02;-3.90;66.90
13960;DHT22;7052;51.050;3.716;2024-01-10T04:48:29;-3.80;66.60
13960;DHT22;7052;51.050;3.716;2024-01-10T04:50:56;-3.90;67.30
13960;DHT22;7052;51.050;3.716;2024-01-10T04:53:23;-3.70;66.90
13960;DHT22;7052;51.050;3.716;2024-01-10T04:55:52;-3.90;66.90
13960;DHT22;7052;51.050;3.716;2024-01-10T04:58:19;-3.90;67.50
13960;DHT22;7052;51.050;3.716;2024-01-10T05:00:48;-3.90;67.70
13960;DHT22;7052;51.050;3.716;2024-01-10T05:03:14;-3.90;66.80
13960;DHT22;7052;51.050;3.716;2024-01-10T05:05:41;-3.90;67.20
13960;DHT22;7052;51.050;3.716;2024-01-10T05:08:08;-4.00;67.20
13960;DHT22;7052;51.050;3.716;2024-01-10T05:10:35;-3.90;67.40
13960;DHT22;7052;51.050;3.716;2024-01-10T05:13:02;-3.80;66.90
13960;DHT22;7052;51.050;3.716;2024-01-10T05:15:29;-3.90;66.50
13960;DHT22;7052;51.050;3.716;2024-01-10T05:17:58;-3.90;65.90
13960;DHT22;7052;51.050;3.716;2024-01-10T05:20:25;-3.80;65.90
13960;DHT22;7052;51.050;3.716;2024-01-10T05:22:53;-3.80;65.80
13960;DHT22;7052;51.050;3.716;2024-01-10T05:25:19;-3.90;65.50
13960;DHT22;7052;51.050;3.716;2024-01-10T05:27:47;-3.80;65.50
13960;DHT22;7052;51.050;3.716;2024-01-10T05:30:16;-3.80;65.70
13960;DHT22;7052;51.050;3.716;2024-01-10T05:32:46;-3.80;65.60
13960;DHT22;7052;51.050;3.716;2024-01-10T05:35:15;-3.80;65.00
13960;DHT22;7052;51.050;3.716;2024-01-10T05:37:43;-3.80;65.10
13960;DHT22;7052;51.050;3.716;2024-01-10T05:40:11;-3.80;65.30
13960;DHT22;7052;51.050;3.716;2024-01-10T05:42:38;-3.90;65.90
13960;DHT22;7052;51.050;3.716;2024-01-10T05:45:06;-3.90;66.50
13960;DHT22;7052;51.050;3.716;2024-01-10T05:47:33;-3.90;66.70
13960;DHT22;7052;51.050;3.716;2024-01-10T05:50:00;-3.90;66.80
13960;DHT22;7052;51.050;3.716;2024-01-10T05:52:31;-3.90;66.80
13960;DHT22;7052;51.050;3.716;2024-01-10T05:54:59;-3.90;67.00
13960;DHT22;7052;51.050;3.716;2024-01-10T05:57:27;-3.90;67.40
13960;DHT22;7052;51.050;3.716;2024-01-10T05:59:56;-3.90;67.70
13960;DHT22;7052;51.050;3.716;2024-01-10T06:02:23;-4.00;68.10
13960;DHT22;7052;51.050;3.716;2024-01-10T06:04:57;-4.00;68.20
13960;DHT22;7052;51.050;3.716;2024-01-10T06:07:24;-4.00;68.20
13960;DHT22;7052;51.050;3.716;2024-01-10T06:09:52;-4.00;67.90
13960;DHT22;7052;51.050;3.716;2024-01-10T06:12:19;-4.00;68.00
13960;DHT22;7052;51.050;3.716;2024-01-10T06:14:46;-4.00;68.00
13960;DHT22;7052;51.050;3.716;2024-01-10T06:17:14;-4.00;68.30
13960;DHT22;7052;51.050;3.716;2024-01-10T06:19:41;-4.00;68.50
13960;DHT22;7052;51.050;3.716;2024-01-10T06:22:08;-4.00;68.60
13960;DHT22;7052;51.050;3.716;2024-01-10T06:24:37;-4.00;68.50
13960;DHT22;7052;51.050;3.716;2024-01-10T06:27:05;-4.00;68.40
13960;DHT22;7052;51.050;3.716;2024-01-10T06:29:34;-4.00;68.80
13960;DHT22;7052;51.050;3.716;2024-01-10T06:32:00;-4.00;68.80
13960;DHT22;7052;51.050;3.716;2024-01-10T06:34:27;-4.00;69.20
13960;DHT22;7052;51.050;3.716;2024-01-10T06:36:55;-4.00;69.60
13960;DHT22;7052;51.050;3.716;2024-01-10T06:39:23;-4.10;69.50
13960;DHT22;7052;51.050;3.716;2024-01-10T06:41:50;-4.10;69.50
13960;DHT22;7052;51.050;3.716;2024-01-10T06:44:19;-4.10;69.60
13960;DHT22;7052;51.050;3.716;2024-01-10T06:46:46;-4.10;69.90
13960;DHT22;7052;51.050;3.716;2024-01-10T06:49:13;-4.10;69.90
13960;DHT22;7052;51.050;3.716;2024-01-10T06:51:42;-4.10;70.20
13960;DHT22;7052;51.050;3.716;2024-01-10T06:54:09;-4.10;70.50
13960;DHT22;7052;51.050;3.716;2024-01-10T06:56:38;-4.10;70.50
13960;DHT22;7052;51.050;3.716;2024-01-10T06:59:05;-4.10;70.80
13960;DHT22;7052;51.050;3.716;2024-01-10T07:01:34;-4.20;71.00
13960;DHT22;7052;51.050;3.716;2024-01-10T07:04:01;-4.20;71.80
13960;DHT22;7052;51.050;3.716;2024-01-10T07:06:30;-4.10;71.00
13960;DHT22;7052;51.050;3.716;2024-01-10T07:08:57;-4.20;71.30
13960;DHT22;7052;51.050;3.716;2024-01-10T07:11:26;-4.10;71.60
13960;DHT22;7052;51.050;3.716;2024-01-10T07:13:54;-4.10;71.50
13960;DHT22;7052;51.050;3.716;2024-01-10T07:16:21;-4.20;71.60
13960;DHT22;7052;51.050;3.716;2024-01-10T07:18:54;-4.20;71.80
13960;DHT22;7052;51.050;3.716;2024-01-10T07:21:21;-4.20;72.10
13960;DHT22;7052;51.050;3.716;2024-01-10T07:23:48;-4.20;72.40
13960;DHT22;7052;51.050;3.716;2024-01-10T07:26:15;-4.20;72.40
13960;DHT22;7052;51.050;3.716;2024-01-10T07:28:42;-4.20;72.10
13960;DHT22;7052;51.050;3.716;2024-01-10T07:31:11;-4.20;72.10
13960;DHT22;7052;51.050;3.716;2024-01-10T07:33:38;-4.20;72.20
13960;DHT22;7052;51.050;3.716;2024-01-10T07:36:07;-4.20;72.20
13960;DHT22;7052;51.050;3.716;2024-01-10T07:38:34;-4.20;72.30
13960;DHT22;7052;51.050;3.716;2024-01-10T07:41:01;-4.20;72.70
13960;DHT22;7052;51.050;3.716;2024-01-10T07:43:28;-4.30;73.50
13960;DHT22;7052;51.050;3.716;2024-01-10T07:45:55;-4.30;73.20
13960;DHT22;7052;51.050;3.716;2024-01-10T07:48:23;-4.30;73.40
13960;DHT22;7052;51.050;3.716;2024-01-10T07:50:50;-4.20;73.50
13960;DHT22;7052;51.050;3.716;2024-01-10T07:53:18;-4.20;73.50
13960;DHT22;7052;51.050;3.716;2024-01-10T07:55:45;-4.20;73.80
13960;DHT22;7052;51.050;3.716;2024-01-10T07:58:12;-4.20;74.00
13960;DHT22;7052;51.050;3.716;2024-01-10T08:00:41;-4.20;73.80
13960;DHT22;7052;51.050;3.716;2024-01-10T08:03:08;-4.20;73.70
13960;DHT22;7052;51.050;3.716;2024-01-10T08:05:36;-4.10;73.70
13960;DHT22;7052;51.050;3.716;2024-01-10T08:08:03;-4.10;73.60
13960;DHT22;7052;51.050;3.716;2024-01-10T08:10:32;-4.10;73.80
13960;DHT22;7052;51.050;3.716;2024-01-10T08:13:00;-4.10;73.90
13960;DHT22;7052;51.050;3.716;2024-01-10T08:15:28;-4.10;73.90
13960;DHT22;7052;51.050;3.716;2024-01-10T08:17:56;-4.10;73.90
13960;DHT22;7052;51.050;3.716;2024-01-10T08:20:26;-4.10;73.90
13960;DHT22;7052;51.050;3.716;2024-01-10T08:22:53;-4.10;73.90
13960;DHT22;7052;51.050;3.716;2024-01-10T08:25:20;-4.10;74.00
13960;DHT22;7052;51.050;3.716;2024-01-10T08:27:51;-4.00;74.20
13960;DHT22;7052;51.050;3.716;2024-01-10T08:30:19;-4.00;74.00
13960;DHT22;7052;51.050;3.716;2024-01-10T08:32:47;-4.00;73.90
13960;DHT22;7052;51.050;3.716;2024-01-10T08:35:14;-4.00;74.10
13960;DHT22;7052;51.050;3.716;2024-01-10T08:37:41;-4.00;74.20
13960;DHT22;7052;51.050;3.716;2024-01-10T08:40:11;-4.00;74.40
13960;DHT22;7052;51.050;3.716;2024-01-10T08:42:40;-4.00;74.30
13960;DHT22;7052;51.050;3.716;2024-01-10T08:45:09;-3.90;74.30
13960;DHT22;7052;51.050;3.716;2024-01-10T08:47:38;-4.00;74.10
13960;DHT22;7052;51.050;3.716;2024-01-10T08:50:06;-4.00;74.20
13960;DHT22;7052;51.050;3.716;2024-01-10T08:52:34;-3.90;74.40
13960;DHT22;7052;51.050;3.716;2024-01-10T08:55:05;-3.90;74.30
13960;DHT22;7052;51.050;3.716;2024-01-10T08:57:32;-3.90;74.30
13960;DHT22;7052;51.050;3.716;2024-01-10T09:00:01;-3.80;74.30
13960;DHT22;7052;51.050;3.716;2024-01-10T09:02:33;-3.80;74.20
13960;DHT22;7052;51.050;3.716;2024-01-10T09:05:02;-3.70;73.60
13960;DHT22;7052;51.050;3.716;2024-01-10T09:07:30;-3.70;73.60
13960;DHT22;7052;51.050;3.716;2024-01-10T09:10:01;-3.60;73.60
13960;DHT22;7052;51.050;3.716;2024-01-10T09:12:31;-3.60;73.20
13960;DHT22;7052;51.050;3.716;2024-01-10T09:14:58;-3.50;73.30
13960;DHT22;7052;51.050;3.716;2024-01-10T09:17:26;-3.50;72.50
13960;DHT22;7052;51.050;3.716;2024-01-10T09:19:55;-3.40;72.60
13960;DHT22;7052;51.050;3.716;2024-01-10T09:22:23;-3.30;72.60
13960;DHT22;7052;51.050;3.716;2024-01-10T09:24:50;-3.20;71.30
13960;DHT22;7052;51.050;3.716;2024-01-10T09:27:17;-3.10;70.50
13960;DHT22;7052;51.050;3.716;2024-01-10T09:29:44;-3.10;70.50
13960;DHT22;7052;51.050;3.716;2024-01-10T09:32:11;-3.10;69.80
13960;DHT22;7052;51.050;3.716;2024-01-10T09:34:39;-3.00;68.40
13960;DHT22;7052;51.050;3.716;2024-01-10T09:37:10;-2.90;67.70
13960;DHT22;7052;51.050;3.716;2024-01-10T09:39:37;-2.90;67.40
13960;DHT22;7052;51.050;3.716;2024-01-10T09:42:07;-2.90;67.00
13960;DHT22;7052;51.050;3.716;2024-01-10T09:44:34;-2.90;67.30
13960;DHT22;7052;51.050;3.716;2024-01-10T09:47:01;-2.90;67.30
13960;DHT22;7052;51.050;3.716;2024-01-10T09:49:29;-2.80;66.20
13960;DHT22;7052;51.050;3.716;2024-01-10T09:51:58;-2.80;66.40
13960;DHT22;7052;51.050;3.716;2024-01-10T09:54:30;-2.70;66.60
13960;DHT22;7052;51.050;3.716;2024-01-10T09:56:57;-2.70;65.50
13960;DHT22;7052;51.050;3.716;2024-01-10T09:59:24;-2.60;65.80
13960;DHT22;7052;51.050;3.716;2024-01-10T10:01:51;-2.60;66.00
13960;DHT22;7052;51.050;3.716;2024-01-10T10:04:20;-2.60;65.70
13960;DHT22;7052;51.050;3.716;2024-01-10T10:06:58;-2.50;64.20
13960;DHT22;7052;51.050;3.716;2024-01-10T10:09:28;-2.50;63.90
13960;DHT22;7052;51.050;3.716;2024-01-10T10:11:56;-2.40;63.50
13960;DHT22;7052;51.050;3.716;2024-01-10T10:14:24;-2.40;62.70
13960;DHT22;7052;51.050;3.716;2024-01-10T10:16:55;-2.40;63.10
13960;DHT22;7052;51.050;3.716;2024-01-10T10:19:25;-2.40;63.90
13960;DHT22;7052;51.050;3.716;2024-01-10T10:21:52;-2.40;64.30
13960;DHT22;7052;51.050;3.716;2024-01-10T10:24:20;-2.30;64.30
13960;DHT22;7052;51.050;3.716;2024-01-10T10:26:49;-2.30;63.10
13960;DHT22;7052;51.050;3.716;2024-01-10T10:29:17;-2.30;62.90
13960;DHT22;7052;51.050;3.716;2024-01-10T10:31:47;-2.30;63.30
13960;DHT22;7052;51.050;3.716;2024-01-10T10:34:21;-2.20;62.80
13960;DHT22;7052;51.050;3.716;2024-01-10T10:36:49;-2.10;61.90
13960;DHT22;7052;51.050;3.716;2024-01-10T10:39:16;-2.10;62.10
13960;DHT22;7052;51.050;3.716;2024-01-10T10:41:43;-2.10;62.50
13960;DHT22;7052;51.050;3.716;2024-01-10T10:44:19;-2.10;63.10
13960;DHT22;7052;51.050;3.716;2024-01-10T10:46:52;-2.10;63.40
13960;DHT22;7052;51.050;3.716;2024-01-10T10:49:26;-2.00;63.80
13960;DHT22;7052;51.050;3.716;2024-01-10T10:52:01;-2.00;62.00
13960;DHT22;7052;51.050;3.716;2024-01-10T10:54:29;-1.90;60.70
13960;DHT22;7052;51.050;3.716;2024-01-10T10:56:58;-1.90;61.00
13960;DHT22;7052;51.050;3.716;2024-01-10T10:59:35;-1.90;61.40
13960;DHT22;7052;51.050;3.716;2024-01-10T11:02:06;-1.80;61.20
13960;DHT22;7052;51.050;3.716;2024-01-10T11:04:37;-1.80;61.20
13960;DHT22;7052;51.050;3.716;2024-01-10T11:07:07;-1.70;61.40
13960;DHT22;7052;51.050;3.716;2024-01-10T11:09:35;-1.70;61.20
13960;DHT22;7052;51.050;3.716;2024-01-10T11:12:19;-1.60;61.50
13960;DHT22;7052;51.050;3.716;2024-01-10T11:15:08;-1.60;60.30
13960;DHT22;7052;51.050;3.716;2024-01-10T11:17:57;-1.50;57.90
13960;DHT22;7052;51.050;3.716;2024-01-10T11:20:40;-1.40;57.40
13960;DHT22;7052;51.050;3.716;2024-01-10T11:23:37;-1.30;57.80
13960;DHT22;7052;51.050;3.716;2024-01-10T11:26:14;-1.40;57.10
13960;DHT22;7052;51.050;3.716;2024-01-10T11:28:42;-1.30;57.00
13960;DHT22;7052;51.050;3.716;2024-01-10T11:31:10;-1.20;57.20
13960;DHT22;7052;51.050;3.716;2024-01-10T11:33:40;-1.10;57.20
13960;DHT22;7052;51.050;3.716;2024-01-10T11:36:18;-1.10;56.10
13960;DHT22;7052;51.050;3.716;2024-01-10T11:38:50;-1.00;55.80
13960;DHT22;7052;51.050;3.716;2024-01-10T11:41:23;-0.90;54.50
13960;DHT22;7052;51.050;3.716;2024-01-10T11:44:25;-0.80;54.80
13960;DHT22;7052;51.050;3.716;2024-01-10T11:46:55;-0.70;54.90
13960;DHT22;7052;51.050;3.716;2024-01-10T11:49:24;-0.60;54.30
13960;DHT22;7052;51.050;3.716;2024-01-10T11:51:53;-0.60;54.40
13960;DHT22;7052;51.050;3.716;2024-01-10T11:54:38;-0.50;54.00
13960;DHT22;7052;51.050;3.716;2024-01-10T11:57:11;-0.50;53.20
13960;DHT22;7052;51.050;3.716;2024-01-10T11:59:41;-0.50;53.90
13960;DHT22;7052;51.050;3.716;2024-01-10T12:02:10;-0.50;53.80
13960;DHT22;7052;51.050;3.716;2024-01-10T12:04:39;-0.50;54.00
13960;DHT22;7052;51.050;3.716;2024-01-10T12:07:08;-0.40;53.70
13960;DHT22;7052;51.050;3.716;2024-01-10T12:09:35;-0.40;52.70
13960;DHT22;7052;51.050;3.716;2024-01-10T12:12:03;-0.30;53.10
13960;DHT22;7052;51.050;3.716;2024-01-10T12:14:31;-0.30;53.10
13960;DHT22;7052;51.050;3.716;2024-01-10T12:16:59;-0.30;53.00
13960;DHT22;7052;51.050;3.716;2024-01-10T12:19:31;-0.30;53.20
13960;DHT22;7052;51.050;3.716;2024-01-10T12:21:58;-0.30;53.40
13960;DHT22;7052;51.050;3.716;2024-01-10T12:24:27;-0.30;54.10
13960;DHT22;7052;51.050;3.716;2024-01-10T12:26:55;-0.20;53.60
13960;DHT22;7052;51.050;3.716;2024-01-10T12:29:23;-0.20;53.00
13960;DHT22;7052;51.050;3.716;2024-01-10T12:31:51;-0.10;52.90
13960;DHT22;7052;51.050;3.716;2024-01-10T12:34:20;-0.10;53.10
13960;DHT22;7052;51.050;3.716;2024-01-10T12:36:55;-0.10;53.50
13960;DHT22;7052;51.050;3.716;2024-01-10T12:39:26;-0.10;53.50
13960;DHT22;7052;51.050;3.716;2024-01-10T12:41:57;-0.10;53.40
13960;DHT22;7052;51.050;3.716;2024-01-10T12:44:28;0.00;53.20
13960;DHT22;7052;51.050;3.716;2024-01-10T12:46:55;0.00;52.10
13960;DHT22;7052;51.050;3.716;2024-01-10T12:49:25;0.10;51.00
13960;DHT22;7052;51.050;3.716;2024-01-10T12:51:54;0.10;51.40
13960;DHT22;7052;51.050;3.716;2024-01-10T12:54:25;0.10;51.30
13960;DHT22;7052;51.050;3.716;2024-01-10T12:56:52;0.20;50.60
13960;DHT22;7052;51.050;3.716;2024-01-10T12:59:21;0.20;50.70
13960;DHT22;7052;51.050;3.716;2024-01-10T13:01:49;0.20;49.50
13960;DHT22;7052;51.050;3.716;2024-01-10T13:04:16;0.30;48.90
13960;DHT22;7052;51.050;3.716;2024-01-10T13:06:44;0.40;48.50
13960;DHT22;7052;51.050;3.716;2024-01-10T13:09:12;0.40;48.60
13960;DHT22;7052;51.050;3.716;2024-01-10T13:11:40;0.40;48.70
13960;DHT22;7052;51.050;3.716;2024-01-10T13:14:07;0.30;49.00
13960;DHT22;7052;51.050;3.716;2024-01-10T13:16:35;0.30;49.20
13960;DHT22;7052;51.050;3.716;2024-01-10T13:19:02;0.30;49.50
13960;DHT22;7052;51.050;3.716;2024-01-10T13:21:29;0.30;49.30
13960;DHT22;7052;51.050;3.716;2024-01-10T13:23:58;0.40;49.20
13960;DHT22;7052;51.050;3.716;2024-01-10T13:26:27;0.40;49.30
13960;DHT22;7052;51.050;3.716;2024-01-10T13:28:54;0.50;48.50
13960;DHT22;7052;51.050;3.716;2024-01-10T13:31:20;0.50;48.20
13960;DHT22;7052;51.050;3.716;2024-01-10T13:33:47;0.50;48.20
13960;DHT22;7052;51.050;3.716;2024-01-10T13:36:15;0.60;48.00
13960;DHT22;7052;51.050;3.716;2024-01-10T13:38:42;0.50;48.30
13960;DHT22;7052;51.050;3.716;2024-01-10T13:41:09;0.40;48.90
13960;DHT22;7052;51.050;3.716;2024-01-10T13:43:38;0.40;49.30
13960;DHT22;7052;51.050;3.716;2024-01-10T13:46:05;0.40;49.40
13960;DHT22;7052;51.050;3.716;2024-01-10T13:48:33;0.30;49.50
13960;DHT22;7052;51.050;3.716;2024-01-10T13:51:00;0.40;49.50
13960;DHT22;7052;51.050;3.716;2024-01-10T13:53:27;0.30;49.50
13960;DHT22;7052;51.050;3.716;2024-01-10T13:55:54;0.40;49.70
13960;DHT22;7052;51.050;3.716;2024-01-10T13:58:21;0.40;49.90
13960;DHT22;7052;51.050;3.716;2024-01-10T14:00:50;0.40;49.80
13960;DHT22;7052;51.050;3.716;2024-01-10T14:03:18;0.40;50.20
13960;DHT22;7052;51.050;3.716;2024-01-10T14:05:47;0.40;50.00
13960;DHT22;7052;51.050;3.716;2024-01-10T14:08:14;0.40;50.20
13960;DHT22;7052;51.050;3.716;2024-01-10T14:10:41;0.30;50.50
13960;DHT22;7052;51.050;3.716;2024-01-10T14:13:09;0.30;50.60
13960;DHT22;7052;51.050;3.716;2024-01-10T14:15:37;0.30;50.70
13960;DHT22;7052;51.050;3.716;2024-01-10T14:18:06;0.30;50.80
13960;DHT22;7052;51.050;3.716;2024-01-10T14:20:34;0.30;50.90
13960;DHT22;7052;51.050;3.716;2024-01-10T14:23:03;0.30;50.50
13960;DHT22;7052;51.050;3.716;2024-01-10T14:25:31;0.30;49.90
13960;DHT22;7052;51.050;3.716;2024-01-10T14:27:59;0.20;49.80
13960;DHT22;7052;51.050;3.716;2024-01-10T14:30:26;0.30;49.90
13960;DHT22;7052;51.050;3.716;2024-01-10T14:32:54;0.40;50.30
13960;DHT22;7052;51.050;3.716;2024-01-10T14:35:23;0.40;50.30
13960;DHT22;7052;51.050;3.716;2024-01-10T14:37:50;0.40;49.90
13960;DHT22;7052;51.050;3.716;2024-01-10T14:40:18;0.40;50.00
13960;DHT22;7052;51.050;3.716;2024-01-10T14:42:47;0.40;50.30
13960;DHT22;7052;51.050;3.716;2024-01-10T14:45:15;0.40;50.10
13960;DHT22;7052;51.050;3.716;2024-01-10T14:47:45;0.40;49.90
13960;DHT22;7052;51.050;3.716;2024-01-10T14:50:13;0.50;49.90
13960;DHT22;7052;51.050;3.716;2024-01-10T14:52:43;0.40;50.20
13960;DHT22;7052;51.050;3.716;2024-01-10T14:55:11;0.40;50.70
13960;DHT22;7052;51.050;3.716;2024-01-10T14:57:38;0.40;50.70
13960;DHT22;7052;51.050;3.716;2024-01-10T15:00:06;0.40;51.00
13960;DHT22;7052;51.050;3.716;2024-01-10T15:02:34;0.40;51.20
13960;DHT22;7052;51.050;3.716;2024-01-10T15:05:01;0.40;51.40
13960;DHT22;7052;51.050;3.716;2024-01-10T15:07:28;0.40;51.40
13960;DHT22;7052;51.050;3.716;2024-01-10T15:09:56;0.40;51.40
13960;DHT22;7052;51.050;3.716;2024-01-10T15:12:25;0.40;51.60
13960;DHT22;7052;51.050;3.716;2024-01-10T15:14:52;0.30;51.90
13960;DHT22;7052;51.050;3.716;2024-01-10T15:17:20;0.30;52.00
13960;DHT22;7052;51.050;3.716;2024-01-10T15:19:48;0.30;52.10
13960;DHT22;7052;51.050;3.716;2024-01-10T15:22:16;0.30;52.00
13960;DHT22;7052;51.050;3.716;2024-01-10T15:24:44;0.30;52.00
13960;DHT22;7052;51.050;3.716;2024-01-10T15:27:14;0.30;52.00
13960;DHT22;7052;51.050;3.716;2024-01-10T15:29:41;0.30;51.80
13960;DHT22;7052;51.050;3.716;2024-01-10T15:32:08;0.30;51.90
13960;DHT22;7052;51.050;3.716;2024-01-10T15:34:35;0.30;52.30
13960;DHT22;7052;51.050;3.716;2024-01-10T15:37:03;0.30;52.50
13960;DHT22;7052;51.050;3.716;2024-01-10T15:39:31;0.20;53.20
13960;DHT22;7052;51.050;3.716;2024-01-10T15:41:58;0.20;52.90
13960;DHT22;7052;51.050;3.716;2024-01-10T15:44:26;0.20;53.20
13960;DHT22;7052;51.050;3.716;2024-01-10T15:46:55;0.10;53.50
13960;DHT22;7052;51.050;3.716;2024-01-10T15:49:23;0.10;53.70
13960;DHT22;7052;51.050;3.716;2024-01-10T15:51:50;0.10;53.80
13960;DHT22;7052;51.050;3.716;2024-01-10T15:54:17;0.10;54.00
13960;DHT22;7052;51.050;3.716;2024-01-10T15:56:44;0.00;53.70